sensor_id;sensor_type;location;lat;lon;timestamp;temperature;humidity
16825;DHT22;8529;48.108;-1.706;2023-08-21T00:01:40;20.20;99.90
16825;DHT22;8529;48.108;-1.706;2023-08-21T00:04:07;20.10;99.90
16825;DHT22;8529;48.108;-1.706;2023-08-21T00:06:34;20.10;99.90
16825;DHT22;8529;48.108;-1.706;2023-08-21T00:09:02;20.10;99.90
16825;DHT22;8529;48.108;-1.706;2023-08-21T00:11:29;20.10;99.90
16825;DHT22;8529;48.108;-1.706;2023-08-21T00:13:56;20.00;99.90
16825;DHT22;8529;48.108;-1.706;2023-08-21T00:16:23;20.00;99.90
16825;DHT22;8529;48.108;-1.706;2023-08-21T00:18:52;20.00;99.90
16825;DHT22;8529;48.108;-1.706;2023-08-21T00:21:19;20.00;99.90
16825;DHT22;8529;48.108;-1.706;2023-08-21T00:23:46;19.90;99.90
16825;DHT22;8529;48.108;-1.706;2023-08-21T00:26:14;19.90;99.90
16825;DHT22;8529;48.108;-1.706;2023-08-21T00:28:41;19.90;99.90
16825;DHT22;8529;48.108;-1.706;2023-08-21T00:31:08;19.80;99.90
16825;DHT22;8529;48.108;-1.706;2023-08-21T00:33:35;19.80;99.90
16825;DHT22;8529;48.108;-1.706;2023-08-21T00:36:03;19.80;99.90
16825;DHT22;8529;48.108;-1.706;2023-08-21T00:38:29;19.70;99.90
16825;DHT22;8529;48.108;-1.706;2023-08-21T00:40:56;19.80;99.90
16825;DHT22;8529;48.108;-1.706;2023-08-21T00:43:25;19.70;99.90
16825;DHT22;8529;48.108;-1.706;2023-08-21T00:45:52;19.70;99.90
16825;DHT22;8529;48.108;-1.706;2023-08-21T00:48:19;19.80;99.90
16825;DHT22;8529;48.108;-1.706;2023-08-21T00:50:46;19.80;99.90
16825;DHT22;8529;48.108;-1.706;2023-08-21T00:53:14;19.80;99.90
16825;DHT22;8529;48.108;-1.706;2023-08-21T00:55:41;19.80;99.90
16825;DHT22;8529;48.108;-1.706;2023-08-21T00:58:10;19.80;99.90
16825;DHT22;8529;48.108;-1.706;2023-08-21T01:00:39;19.70;99.90
16825;DHT22;8529;48.108;-1.706;2023-08-21T01:03:06;19.70;99.90
16825;DHT22;8529;48.108;-1.706;2023-08-21T01:05:35;19.70;99.90
16825;DHT22;8529;48.108;-1.706;2023-08-21T01:08:04;19.70;99.90
16825;DHT22;8529;48.108;-1.706;2023-08-21T01:10:39;19.70;99.90
16825;DHT22;8529;48.108;-1.706;2023-08-21T01:13:19;19.70;99.90
16825;DHT22;8529;48.108;-1.706;2023-08-21T01:15:51;19.60;99.90
16825;DHT22;8529;48.108;-1.706;2023-08-21T01:18:20;19.70;99.90
16825;DHT22;8529;48.108;-1.706;2023-08-21T01:20:48;19.60;99.90
16825;DHT22;8529;48.108;-1.706;2023-08-21T01:23:29;19.60;99.90
16825;DHT22;8529;48.108;-1.706;2023-08-21T01:25:56;19.60;99.90
16825;DHT22;8529;48.108;-1.706;2023-08-21T01:28:23;19.60;99.90
16825;DHT22;8529;48.108;-1.706;2023-08-21T01:30:52;19.60;99.90
16825;DHT22;8529;48.108;-1.706;2023-08-21T01:33:23;19.50;99.90
16825;DHT22;8529;48.108;-1.706;2023-08-21T01:35:51;19.60;99.90
16825;DHT22;8529;48.108;-1.706;2023-08-21T01:38:18;19.50;99.90
16825;DHT22;8529;48.108;-1.706;2023-08-21T01:40:48;19.50;99.90
16825;DHT22;8529;48.108;-1.706;2023-08-21T01:43:15;19.50;99.90
16825;DHT22;8529;48.108;-1.706;2023-08-21T01:45:42;19.40;99.90
16825;DHT22;8529;48.108;-1.706;2023-08-21T01:48:09;19.50;99.90
16825;DHT22;8529;48.108;-1.706;2023-08-21T01:50:36;19.40;99.90
16825;DHT22;8529;48.108;-1.706;2023-08-21T01:53:03;19.40;99.90
16825;DHT22;8529;48.108;-1.706;2023-08-21T01:55:30;19.40;99.90
16825;DHT22;8529;48.108;-1.706;2023-08-21T01:57:58;19.40;99.90
16825;DHT22;8529;48.108;-1.706;2023-08-21T02:00:25;19.40;99.90
16825;DHT22;8529;48.108;-1.706;2023-08-21T02:02:51;19.40;99.90
16825;DHT22;8529;48.108;-1.706;2023-08-21T02:05:18;19.40;99.90
16825;DHT22;8529;48.108;-1.706;2023-08-21T02:07:45;19.40;99.90
16825;DHT22;8529;48.108;-1.706;2023-08-21T02:10:12;19.40;99.90
16825;DHT22;8529;48.108;-1.706;2023-08-21T02:12:39;19.40;99.90
16825;DHT22;8529;48.108;-1.706;2023-08-21T02:15:08;19.40;99.90
16825;DHT22;8529;48.108;-1.706;2023-08-21T02:17:36;19.30;99.90
16825;DHT22;8529;48.108;-1.706;2023-08-21T02:20:03;19.40;99.90
16825;DHT22;8529;48.108;-1.706;2023-08-21T02:22:30;19.30;99.90
16825;DHT22;8529;48.108;-1.706;2023-08-21T02:24:57;19.30;99.90
16825;DHT22;8529;48.108;-1.706;2023-08-21T02:27:24;19.40;99.90
16825;DHT22;8529;48.108;-1.706;2023-08-21T02:29:50;19.40;99.90
16825;DHT22;8529;48.108;-1.706;2023-08-21T02:32:19;19.40;99.90
16825;DHT22;8529;48.108;-1.706;2023-08-21T02:34:46;19.40;99.90
16825;DHT22;8529;48.108;-1.706;2023-08-21T02:37:13;19.40;99.90
16825;DHT22;8529;48.108;-1.706;2023-08-21T02:39:39;19.40;99.90
16825;DHT22;8529;48.108;-1.706;2023-08-21T02:42:06;19.40;99.90
16825;DHT22;8529;48.108;-1.706;2023-08-21T02:44:34;19.40;99.90
16825;DHT22;8529;48.108;-1.706;2023-08-21T02:47:01;19.30;99.90
16825;DHT22;8529;48.108;-1.706;2023-08-21T02:49:29;19.40;99.90
16825;DHT22;8529;48.108;-1.706;2023-08-21T02:51:56;19.40;99.90
16825;DHT22;8529;48.108;-1.706;2023-08-21T02:54:23;19.40;99.90
16825;DHT22;8529;48.108;-1.706;2023-08-21T02:56:50;19.30;99.90
16825;DHT22;8529;48.108;-1.706;2023-08-21T02:59:17;19.30;99.90
16825;DHT22;8529;48.108;-1.706;2023-08-21T03:01:44;19.30;99.90
16825;DHT22;8529;48.108;-1.706;2023-08-21T03:04:11;19.30;99.90
16825;DHT22;8529;48.108;-1.706;2023-08-21T03:06:39;19.30;99.90
16825;DHT22;8529;48.108;-1.706;2023-08-21T03:09:06;19.30;99.90
16825;DHT22;8529;48.108;-1.706;2023-08-21T03:11:33;19.30;99.90
16825;DHT22;8529;48.108;-1.706;2023-08-21T03:14:00;19.20;99.90
16825;DHT22;8529;48.108;-1.706;2023-08-21T03:16:26;19.20;99.90
16825;DHT22;8529;48.108;-1.706;2023-08-21T03:18:55;19.20;99.90
16825;DHT22;8529;48.108;-1.706;2023-08-21T03:21:22;19.10;99.90
16825;DHT22;8529;48.108;-1.706;2023-08-21T03:23:54;19.10;99.90
16825;DHT22;8529;48.108;-1.706;2023-08-21T03:26:21;19.10;99.90
16825;DHT22;8529;48.108;-1.706;2023-08-21T03:28:48;19.10;99.90
16825;DHT22;8529;48.108;-1.706;2023-08-21T03:31:15;19.10;99.90
16825;DHT22;8529;48.108;-1.706;2023-08-21T03:33:42;19.00;99.90
16825;DHT22;8529;48.108;-1.706;2023-08-21T03:36:09;19.00;99.90
16825;DHT22;8529;48.108;-1.706;2023-08-21T03:38:35;19.00;99.90
16825;DHT22;8529;48.108;-1.706;2023-08-21T03:41:04;19.10;99.90
16825;DHT22;8529;48.108;-1.706;2023-08-21T03:43:31;19.10;99.90
16825;DHT22;8529;48.108;-1.706;2023-08-21T03:45:58;19.10;99.90
16825;DHT22;8529;48.108;-1.706;2023-08-21T03:48:25;19.20;99.90
16825;DHT22;8529;48.108;-1.706;2023-08-21T03:50:52;19.20;99.90
16825;DHT22;8529;48.108;-1.706;2023-08-21T03:53:19;19.20;99.90
16825;DHT22;8529;48.108;-1.706;2023-08-21T03:55:46;19.20;99.90
16825;DHT22;8529;48.108;-1.706;2023-08-21T03:58:14;19.20;99.90
16825;DHT22;8529;48.108;-1.706;2023-08-21T04:00:41;19.10;99.90
16825;DHT22;8529;48.108;-1.706;2023-08-21T04:03:08;19.10;99.90
16825;DHT22;8529;48.108;-1.706;2023-08-21T04:05:35;19.10;99.90
16825;DHT22;8529;48.108;-1.706;2023-08-21T04:08:02;19.00;99.90
16825;DHT22;8529;48.108;-1.706;2023-08-21T04:10:29;19.00;99.90
16825;DHT22;8529;48.108;-1.706;2023-08-21T04:12:56;19.00;99.90
16825;DHT22;8529;48.108;-1.706;2023-08-21T04:15:25;19.00;99.90
16825;DHT22;8529;48.108;-1.706;2023-08-21T04:17:52;18.90;99.90
16825;DHT22;8529;48.108;-1.706;2023-08-21T04:20:20;18.90;99.90
16825;DHT22;8529;48.108;-1.706;2023-08-21T04:22:47;18.90;99.90
16825;DHT22;8529;48.108;-1.706;2023-08-21T04:25:14;19.00;99.90
16825;DHT22;8529;48.108;-1.706;2023-08-21T04:27:41;18.90;99.90
16825;DHT22;8529;48.108;-1.706;2023-08-21T04:30:09;19.00;99.90
16825;DHT22;8529;48.108;-1.706;2023-08-21T04:32:37;18.90;99.90
16825;DHT22;8529;48.108;-1.706;2023-08-21T04:35:05;18.90;99.90
16825;DHT22;8529;48.108;-1.706;2023-08-21T04:37:33;18.90;99.90
16825;DHT22;8529;48.108;-1.706;2023-08-21T04:40:00;18.80;99.90
16825;DHT22;8529;48.108;-1.706;2023-08-21T04:42:27;18.90;99.90
16825;DHT22;8529;48.108;-1.706;2023-08-21T04:44:54;18.90;99.90
16825;DHT22;8529;48.108;-1.706;2023-08-21T04:47:22;18.80;99.90
16825;DHT22;8529;48.108;-1.706;2023-08-21T04:49:51;18.90;99.90
16825;DHT22;8529;48.108;-1.706;2023-08-21T04:52:18;18.90;99.90
16825;DHT22;8529;48.108;-1.706;2023-08-21T04:54:45;18.90;99.90
16825;DHT22;8529;48.108;-1.706;2023-08-21T04:57:12;19.00;99.90
16825;DHT22;8529;48.108;-1.706;2023-08-21T04:59:39;19.00;99.90
16825;DHT22;8529;48.108;-1.706;2023-08-21T05:02:06;18.90;99.90
16825;DHT22;8529;48.108;-1.706;2023-08-21T05:04:35;18.90;99.90
16825;DHT22;8529;48.108;-1.706;2023-08-21T05:07:04;18.80;99.90
16825;DHT22;8529;48.108;-1.706;2023-08-21T05:09:31;18.70;99.90
16825;DHT22;8529;48.108;-1.706;2023-08-21T05:11:58;18.70;99.90
16825;DHT22;8529;48.108;-1.706;2023-08-21T05:14:24;18.70;99.90
16825;DHT22;8529;48.108;-1.706;2023-08-21T05:16:51;18.60;99.90
16825;DHT22;8529;48.108;-1.706;2023-08-21T05:19:18;18.70;99.90
16825;DHT22;8529;48.108;-1.706;2023-08-21T05:21:45;18.70;99.90
16825;DHT22;8529;48.108;-1.706;2023-08-21T05:24:14;18.70;99.90
16825;DHT22;8529;48.108;-1.706;2023-08-21T05:26:40;18.70;99.90
16825;DHT22;8529;48.108;-1.706;2023-08-21T05:29:08;18.70;99.90
16825;DHT22;8529;48.108;-1.706;2023-08-21T05:31:35;18.70;99.90
16825;DHT22;8529;48.108;-1.706;2023-08-21T05:34:01;18.80;99.90
16825;DHT22;8529;48.108;-1.706;2023-08-21T05:36:28;18.80;99.90
16825;DHT22;8529;48.108;-1.706;2023-08-21T05:38:56;18.80;99.90
16825;DHT22;8529;48.108;-1.706;2023-08-21T05:41:24;18.80;99.90
16825;DHT22;8529;48.108;-1.706;2023-08-21T05:43:51;18.80;99.90
16825;DHT22;8529;48.108;-1.706;2023-08-21T05:46:18;18.80;99.90
16825;DHT22;8529;48.108;-1.706;2023-08-21T05:48:45;18.80;99.90
16825;DHT22;8529;48.108;-1.706;2023-08-21T05:51:12;18.70;99.90
16825;DHT22;8529;48.108;-1.706;2023-08-21T05:53:39;18.70;99.90
16825;DHT22;8529;48.108;-1.706;2023-08-21T05:56:06;18.70;99.90
16825;DHT22;8529;48.108;-1.706;2023-08-21T05:58:34;18.70;99.90
16825;DHT22;8529;48.108;-1.706;2023-08-21T06:01:01;18.80;99.90
16825;DHT22;8529;48.108;-1.706;2023-08-21T06:03:28;18.80;99.90
16825;DHT22;8529;48.108;-1.706;2023-08-21T06:05:55;18.80;99.90
16825;DHT22;8529;48.108;-1.706;2023-08-21T06:08:22;18.80;99.90
16825;DHT22;8529;48.108;-1.706;2023-08-21T06:10:51;18.80;99.90
16825;DHT22;8529;48.108;-1.706;2023-08-21T06:13:18;18.80;99.90
16825;DHT22;8529;48.108;-1.706;2023-08-21T06:15:46;18.80;99.90
16825;DHT22;8529;48.108;-1.706;2023-08-21T06:18:13;18.80;99.90
16825;DHT22;8529;48.108;-1.706;2023-08-21T06:20:42;18.80;99.90
16825;DHT22;8529;48.108;-1.706;2023-08-21T06:23:10;18.90;99.90
16825;DHT22;8529;48.108;-1.706;2023-08-21T06:25:37;18.90;99.90
16825;DHT22;8529;48.108;-1.706;2023-08-21T06:28:04;18.90;99.90
16825;DHT22;8529;48.108;-1.706;2023-08-21T06:30:31;18.90;99.90
16825;DHT22;8529;48.108;-1.706;2023-08-21T06:32:59;18.90;99.90
16825;DHT22;8529;48.108;-1.706;2023-08-21T06:35:26;18.90;99.90
16825;DHT22;8529;48.108;-1.706;2023-08-21T06:37:53;18.90;99.90
16825;DHT22;8529;48.108;-1.706;2023-08-21T06:40:21;18.90;99.90
16825;DHT22;8529;48.108;-1.706;2023-08-21T06:42:48;19.00;99.90
16825;DHT22;8529;48.108;-1.706;2023-08-21T06:45:16;19.00;99.90
16825;DHT22;8529;48.108;-1.706;2023-08-21T06:47:43;19.00;99.90
16825;DHT22;8529;48.108;-1.706;2023-08-21T06:50:11;19.00;99.90
16825;DHT22;8529;48.108;-1.706;2023-08-21T06:52:39;19.10;99.90
16825;DHT22;8529;48.108;-1.706;2023-08-21T06:55:07;19.10;99.90
16825;DHT22;8529;48.108;-1.706;2023-08-21T06:57:34;19.10;99.90
16825;DHT22;8529;48.108;-1.706;2023-08-21T07:00:02;19.20;99.90
16825;DHT22;8529;48.108;-1.706;2023-08-21T07:02:29;19.20;99.90
16825;DHT22;8529;48.108;-1.706;2023-08-21T07:04:56;19.20;99.90
16825;DHT22;8529;48.108;-1.706;2023-08-21T07:07:24;19.20;99.90
16825;DHT22;8529;48.108;-1.706;2023-08-21T07:09:51;19.20;99.90
16825;DHT22;8529;48.108;-1.706;2023-08-21T07:12:18;19.20;99.90
16825;DHT22;8529;48.108;-1.706;2023-08-21T07:14:45;19.20;99.90
16825;DHT22;8529;48.108;-1.706;2023-08-21T07:17:12;19.30;99.90
16825;DHT22;8529;48.108;-1.706;2023-08-21T07:19:39;19.30;99.90
16825;DHT22;8529;48.108;-1.706;2023-08-21T07:22:06;19.40;99.90
16825;DHT22;8529;48.108;-1.706;2023-08-21T07:24:34;19.40;99.90
16825;DHT22;8529;48.108;-1.706;2023-08-21T07:27:01;19.40;99.90
16825;DHT22;8529;48.108;-1.706;2023-08-21T07:29:28;19.50;99.90
16825;DHT22;8529;48.108;-1.706;2023-08-21T07:31:56;19.50;99.90
16825;DHT22;8529;48.108;-1.706;2023-08-21T07:34:22;19.50;99.90
16825;DHT22;8529;48.108;-1.706;2023-08-21T07:36:49;19.60;99.90
16825;DHT22;8529;48.108;-1.706;2023-08-21T07:39:16;19.60;99.90
16825;DHT22;8529;48.108;-1.706;2023-08-21T07:41:44;19.70;99.90
16825;DHT22;8529;48.108;-1.706;2023-08-21T07:44:11;19.70;99.90
16825;DHT22;8529;48.108;-1.706;2023-08-21T07:46:38;19.80;99.90
16825;DHT22;8529;48.108;-1.706;2023-08-21T07:49:05;19.80;99.90
16825;DHT22;8529;48.108;-1.706;2023-08-21T07:51:32;19.90;99.90
16825;DHT22;8529;48.108;-1.706;2023-08-21T07:53:59;19.90;99.90
16825;DHT22;8529;48.108;-1.706;2023-08-21T07:56:26;20.00;99.90
16825;DHT22;8529;48.108;-1.706;2023-08-21T07:58:54;20.00;99.90
16825;DHT22;8529;48.108;-1.706;2023-08-21T08:01:21;20.00;99.90
16825;DHT22;8529;48.108;-1.706;2023-08-21T08:03:48;20.10;99.90
16825;DHT22;8529;48.108;-1.706;2023-08-21T08:06:15;20.10;99.90
16825;DHT22;8529;48.108;-1.706;2023-08-21T08:08:44;20.10;99.90
16825;DHT22;8529;48.108;-1.706;2023-08-21T08:11:11;20.10;99.90
16825;DHT22;8529;48.108;-1.706;2023-08-21T08:13:38;20.10;99.90
16825;DHT22;8529;48.108;-1.706;2023-08-21T08:16:06;20.20;99.90
16825;DHT22;8529;48.108;-1.706;2023-08-21T08:18:33;20.20;99.90
16825;DHT22;8529;48.108;-1.706;2023-08-21T08:21:00;20.30;99.90
16825;DHT22;8529;48.108;-1.706;2023-08-21T08:23:27;20.30;99.90
16825;DHT22;8529;48.108;-1.706;2023-08-21T08:25:54;20.30;99.90
16825;DHT22;8529;48.108;-1.706;2023-08-21T08:28:20;20.40;99.90
16825;DHT22;8529;48.108;-1.706;2023-08-21T08:30:47;20.40;99.90
16825;DHT22;8529;48.108;-1.706;2023-08-21T08:33:16;20.40;99.90
16825;DHT22;8529;48.108;-1.706;2023-08-21T08:35:43;20.50;99.90
16825;DHT22;8529;48.108;-1.706;2023-08-21T08:38:10;20.50;99.90
16825;DHT22;8529;48.108;-1.706;2023-08-21T08:40:42;20.50;99.90
16825;DHT22;8529;48.108;-1.706;2023-08-21T08:43:10;20.60;99.90
16825;DHT22;8529;48.108;-1.706;2023-08-21T08:45:37;20.60;99.90
16825;DHT22;8529;48.108;-1.706;2023-08-21T08:48:06;20.70;99.90
16825;DHT22;8529;48.108;-1.706;2023-08-21T08:50:34;20.70;99.90
16825;DHT22;8529;48.108;-1.706;2023-08-21T08:53:02;20.70;99.90
16825;DHT22;8529;48.108;-1.706;2023-08-21T08:55:30;20.80;99.90
16825;DHT22;8529;48.108;-1.706;2023-08-21T08:57:57;20.80;99.90
16825;DHT22;8529;48.108;-1.706;2023-08-21T09:00:24;20.80;99.90
16825;DHT22;8529;48.108;-1.706;2023-08-21T09:02:52;20.80;99.90
16825;DHT22;8529;48.108;-1.706;2023-08-21T09:05:18;20.80;99.90
16825;DHT22;8529;48.108;-1.706;2023-08-21T09:08:02;20.90;99.90
16825;DHT22;8529;48.108;-1.706;2023-08-21T09:10:29;20.90;99.90
16825;DHT22;8529;48.108;-1.706;2023-08-21T09:12:56;20.90;99.90
16825;DHT22;8529;48.108;-1.706;2023-08-21T09:15:28;21.00;99.90
16825;DHT22;8529;48.108;-1.706;2023-08-21T09:17:55;21.00;99.90
16825;DHT22;8529;48.108;-1.706;2023-08-21T09:20:22;21.00;99.90
16825;DHT22;8529;48.108;-1.706;2023-08-21T09:22:54;21.00;99.90
16825;DHT22;8529;48.108;-1.706;2023-08-21T09:25:23;21.10;99.90
16825;DHT22;8529;48.108;-1.706;2023-08-21T09:27:52;21.20;99.90
16825;DHT22;8529;48.108;-1.706;2023-08-21T09:30:19;21.50;99.90
16825;DHT22;8529;48.108;-1.706;2023-08-21T09:32:53;21.70;99.90
16825;DHT22;8529;48.108;-1.706;2023-08-21T09:35:21;21.90;99.90
16825;DHT22;8529;48.108;-1.706;2023-08-21T09:37:48;22.20;99.90
16825;DHT22;8529;48.108;-1.706;2023-08-21T09:40:17;22.30;99.90
16825;DHT22;8529;48.108;-1.706;2023-08-21T09:42:44;22.40;99.90
16825;DHT22;8529;48.108;-1.706;2023-08-21T09:45:11;22.50;99.90
16825;DHT22;8529;48.108;-1.706;2023-08-21T09:47:38;22.50;99.90
16825;DHT22;8529;48.108;-1.706;2023-08-21T09:50:06;22.50;99.90
16825;DHT22;8529;48.108;-1.706;2023-08-21T09:52:35;22.50;99.90
16825;DHT22;8529;48.108;-1.706;2023-08-21T09:55:05;22.60;99.90
16825;DHT22;8529;48.108;-1.706;2023-08-21T09:57:34;22.60;99.90
16825;DHT22;8529;48.108;-1.706;2023-08-21T10:00:02;22.70;99.90
16825;DHT22;8529;48.108;-1.706;2023-08-21T10:02:42;22.80;99.90
16825;DHT22;8529;48.108;-1.706;2023-08-21T10:05:12;22.90;99.90
16825;DHT22;8529;48.108;-1.706;2023-08-21T10:07:41;23.00;99.90
16825;DHT22;8529;48.108;-1.706;2023-08-21T10:10:09;23.20;99.90
16825;DHT22;8529;48.108;-1.706;2023-08-21T10:12:37;23.40;99.90
16825;DHT22;8529;48.108;-1.706;2023-08-21T10:15:05;23.60;99.90
16825;DHT22;8529;48.108;-1.706;2023-08-21T10:17:33;23.70;99.90
16825;DHT22;8529;48.108;-1.706;2023-08-21T10:20:03;23.80;99.90
16825;DHT22;8529;48.108;-1.706;2023-08-21T10:22:38;23.80;99.90
16825;DHT22;8529;48.108;-1.706;2023-08-21T10:25:14;23.80;99.90
16825;DHT22;8529;48.108;-1.706;2023-08-21T10:27:43;23.90;99.90
16825;DHT22;8529;48.108;-1.706;2023-08-21T10:30:13;24.00;99.90
16825;DHT22;8529;48.108;-1.706;2023-08-21T10:32:47;24.10;99.90
16825;DHT22;8529;48.108;-1.706;2023-08-21T10:35:15;24.10;99.90
16825;DHT22;8529;48.108;-1.706;2023-08-21T10:38:05;24.20;99.90
16825;DHT22;8529;48.108;-1.706;2023-08-21T10:40:32;24.20;99.90
16825;DHT22;8529;48.108;-1.706;2023-08-21T10:43:01;24.20;99.90
16825;DHT22;8529;48.108;-1.706;2023-08-21T10:45:28;24.20;99.90
16825;DHT22;8529;48.108;-1.706;2023-08-21T10:47:57;24.30;99.90
16825;DHT22;8529;48.108;-1.706;2023-08-21T10:50:24;24.30;99.90
16825;DHT22;8529;48.108;-1.706;2023-08-21T10:52:52;24.40;99.90
16825;DHT22;8529;48.108;-1.706;2023-08-21T10:55:19;24.40;99.90
16825;DHT22;8529;48.108;-1.706;2023-08-21T10:57:47;24.30;99.90
16825;DHT22;8529;48.108;-1.706;2023-08-21T11:00:16;24.20;99.90
16825;DHT22;8529;48.108;-1.706;2023-08-21T11:02:45;24.10;99.90
16825;DHT22;8529;48.108;-1.706;2023-08-21T11:05:14;24.00;99.90
16825;DHT22;8529;48.108;-1.706;2023-08-21T11:07:43;23.90;99.90
16825;DHT22;8529;48.108;-1.706;2023-08-21T11:10:11;23.90;99.90
16825;DHT22;8529;48.108;-1.706;2023-08-21T11:12:48;23.90;99.90
16825;DHT22;8529;48.108;-1.706;2023-08-21T11:15:17;24.00;99.90
16825;DHT22;8529;48.108;-1.706;2023-08-21T11:17:51;23.90;99.90
16825;DHT22;8529;48.108;-1.706;2023-08-21T11:20:18;23.90;99.90
16825;DHT22;8529;48.108;-1.706;2023-08-21T11:22:46;23.90;99.90
16825;DHT22;8529;48.108;-1.706;2023-08-21T11:25:14;23.90;99.90
16825;DHT22;8529;48.108;-1.706;2023-08-21T11:27:41;23.80;99.90
16825;DHT22;8529;48.108;-1.706;2023-08-21T11:30:11;23.90;99.90
16825;DHT22;8529;48.108;-1.706;2023-08-21T11:32:39;24.00;99.90
16825;DHT22;8529;48.108;-1.706;2023-08-21T11:35:07;24.10;99.90
16825;DHT22;8529;48.108;-1.706;2023-08-21T11:37:34;24.10;99.90
16825;DHT22;8529;48.108;-1.706;2023-08-21T11:40:10;24.20;99.90
16825;DHT22;8529;48.108;-1.706;2023-08-21T11:42:37;24.20;99.90
16825;DHT22;8529;48.108;-1.706;2023-08-21T11:45:04;24.20;99.90
16825;DHT22;8529;48.108;-1.706;2023-08-21T11:47:32;24.20;99.90
16825;DHT22;8529;48.108;-1.706;2023-08-21T11:50:04;24.10;99.90
16825;DHT22;8529;48.108;-1.706;2023-08-21T11:52:31;24.10;99.90
16825;DHT22;8529;48.108;-1.706;2023-08-21T11:54:58;24.10;99.90
16825;DHT22;8529;48.108;-1.706;2023-08-21T11:57:25;24.00;99.90
16825;DHT22;8529;48.108;-1.706;2023-08-21T11:59:54;24.10;99.90
16825;DHT22;8529;48.108;-1.706;2023-08-21T12:02:23;24.10;99.90
16825;DHT22;8529;48.108;-1.706;2023-08-21T12:04:52;24.10;99.90
16825;DHT22;8529;48.108;-1.706;2023-08-21T12:07:20;24.10;99.90
16825;DHT22;8529;48.108;-1.706;2023-08-21T12:09:48;24.10;99.90
16825;DHT22;8529;48.108;-1.706;2023-08-21T12:12:15;24.10;99.90
16825;DHT22;8529;48.108;-1.706;2023-08-21T12:14:42;24.10;99.90
16825;DHT22;8529;48.108;-1.706;2023-08-21T12:17:09;24.00;99.90
16825;DHT22;8529;48.108;-1.706;2023-08-21T12:19:36;24.00;99.90
16825;DHT22;8529;48.108;-1.706;2023-08-21T12:22:03;24.00;99.90
16825;DHT22;8529;48.108;-1.706;2023-08-21T12:24:32;24.00;99.90
16825;DHT22;8529;48.108;-1.706;2023-08-21T12:26:58;24.00;99.90
16825;DHT22;8529;48.108;-1.706;2023-08-21T12:29:25;24.00;99.90
16825;DHT22;8529;48.108;-1.706;2023-08-21T12:31:52;24.00;99.90
16825;DHT22;8529;48.108;-1.706;2023-08-21T12:34:19;24.00;99.90
16825;DHT22;8529;48.108;-1.706;2023-08-21T12:36:46;24.00;99.90
16825;DHT22;8529;48.108;-1.706;2023-08-21T12:39:13;24.00;99.90
16825;DHT22;8529;48.108;-1.706;2023-08-21T12:41:43;24.00;99.90
16825;DHT22;8529;48.108;-1.706;2023-08-21T12:44:09;24.10;99.90
16825;DHT22;8529;48.108;-1.706;2023-08-21T12:46:37;24.20;99.90
16825;DHT22;8529;48.108;-1.706;2023-08-21T12:49:03;24.30;99.90
16825;DHT22;8529;48.108;-1.706;2023-08-21T12:51:30;24.30;99.90
16825;DHT22;8529;48.108;-1.706;2023-08-21T12:53:57;24.20;99.90
16825;DHT22;8529;48.108;-1.706;2023-08-21T12:56:24;24.10;99.90
16825;DHT22;8529;48.108;-1.706;2023-08-21T12:58:53;24.10;99.90
16825;DHT22;8529;48.108;-1.706;2023-08-21T13:01:19;24.10;99.90
16825;DHT22;8529;48.108;-1.706;2023-08-21T13:03:47;24.10;99.90
16825;DHT22;8529;48.108;-1.706;2023-08-21T13:06:14;24.20;99.90
16825;DHT22;8529;48.108;-1.706;2023-08-21T13:08:41;24.20;99.90
16825;DHT22;8529;48.108;-1.706;2023-08-21T13:11:08;24.20;99.90
16825;DHT22;8529;48.108;-1.706;2023-08-21T13:13:35;24.20;99.90
16825;DHT22;8529;48.108;-1.706;2023-08-21T13:16:03;24.20;99.90
16825;DHT22;8529;48.108;-1.706;2023-08-21T13:18:30;24.30;99.90
16825;DHT22;8529;48.108;-1.706;2023-08-21T13:20:57;24.30;99.90
16825;DHT22;8529;48.108;-1.706;2023-08-21T13:23:24;24.30;99.90
16825;DHT22;8529;48.108;-1.706;2023-08-21T13:25:51;24.20;99.90
16825;DHT22;8529;48.108;-1.706;2023-08-21T13:28:18;24.20;99.90
16825;DHT22;8529;48.108;-1.706;2023-08-21T13:30:45;24.20;99.90
16825;DHT22;8529;48.108;-1.706;2023-08-21T13:33:14;24.10;99.90
16825;DHT22;8529;48.108;-1.706;2023-08-21T13:35:43;24.20;99.90
16825;DHT22;8529;48.108;-1.706;2023-08-21T13:38:10;24.20;99.90
16825;DHT22;8529;48.108;-1.706;2023-08-21T13:40:37;24.20;99.90
16825;DHT22;8529;48.108;-1.706;2023-08-21T13:43:04;24.20;99.90
16825;DHT22;8529;48.108;-1.706;2023-08-21T13:45:33;24.20;99.90
16825;DHT22;8529;48.108;-1.706;2023-08-21T13:47:59;24.30;99.90
16825;DHT22;8529;48.108;-1.706;2023-08-21T13:50:28;24.30;99.90
16825;DHT22;8529;48.108;-1.706;2023-08-21T13:52:55;24.40;99.90
16825;DHT22;8529;48.108;-1.706;2023-08-21T13:55:22;24.40;99.90
16825;DHT22;8529;48.108;-1.706;2023-08-21T13:57:49;24.40;99.90
16825;DHT22;8529;48.108;-1.706;2023-08-21T14:00:16;24.40;99.90
16825;DHT22;8529;48.108;-1.706;2023-08-21T14:02:43;24.30;99.90
16825;DHT22;8529;48.108;-1.706;2023-08-21T14:05:10;24.40;99.90
16825;DHT22;8529;48.108;-1.706;2023-08-21T14:07:39;24.40;99.90
16825;DHT22;8529;48.108;-1.706;2023-08-21T14:10:07;24.30;99.90
16825;DHT22;8529;48.108;-1.706;2023-08-21T14:12:34;24.50;99.90
16825;DHT22;8529;48.108;-1.706;2023-08-21T14:15:01;24.70;99.90
16825;DHT22;8529;48.108;-1.706;2023-08-21T14:17:28;24.80;99.90
16825;DHT22;8529;48.108;-1.706;2023-08-21T14:19:55;24.70;99.90
16825;DHT22;8529;48.108;-1.706;2023-08-21T14:22:22;24.80;99.90
16825;DHT22;8529;48.108;-1.706;2023-08-21T14:24:50;24.80;99.90
16825;DHT22;8529;48.108;-1.706;2023-08-21T14:27:17;24.70;99.90
16825;DHT22;8529;48.108;-1.706;2023-08-21T14:29:44;24.60;99.90
16825;DHT22;8529;48.108;-1.706;2023-08-21T14:32:11;24.60;99.90
16825;DHT22;8529;48.108;-1.706;2023-08-21T14:34:37;24.70;99.90
16825;DHT22;8529;48.108;-1.706;2023-08-21T14:37:04;24.80;99.90
16825;DHT22;8529;48.108;-1.706;2023-08-21T14:39:32;24.90;99.90
16825;DHT22;8529;48.108;-1.706;2023-08-21T14:42:00;24.90;99.90
16825;DHT22;8529;48.108;-1.706;2023-08-21T14:44:28;24.90;99.90
16825;DHT22;8529;48.108;-1.706;2023-08-21T14:46:55;25.00;99.90
16825;DHT22;8529;48.108;-1.706;2023-08-21T14:49:23;25.00;99.90
16825;DHT22;8529;48.108;-1.706;2023-08-21T14:51:50;25.00;99.90
16825;DHT22;8529;48.108;-1.706;2023-08-21T14:54:17;25.10;99.90
16825;DHT22;8529;48.108;-1.706;2023-08-21T14:56:44;25.10;99.90
16825;DHT22;8529;48.108;-1.706;2023-08-21T14:59:13;25.10;99.90
16825;DHT22;8529;48.108;-1.706;2023-08-21T15:01:40;25.10;99.90
16825;DHT22;8529;48.108;-1.706;2023-08-21T15:04:08;25.10;99.90
16825;DHT22;8529;48.108;-1.706;2023-08-21T15:06:35;25.10;99.90
16825;DHT22;8529;48.108;-1.706;2023-08-21T15:09:02;25.10;99.90
16825;DHT22;8529;48.108;-1.706;2023-08-21T15:11:29;25.00;99.90
16825;DHT22;8529;48.108;-1.706;2023-08-21T15:13:56;24.90;99.90
16825;DHT22;8529;48.108;-1.706;2023-08-21T15:16:24;24.90;99.90
16825;DHT22;8529;48.108;-1.706;2023-08-21T15:18:51;24.90;99.90
16825;DHT22;8529;48.108;-1.706;2023-08-21T15:21:18;24.90;99.90
16825;DHT22;8529;48.108;-1.706;2023-08-21T15:23:45;24.90;99.90
16825;DHT22;8529;48.108;-1.706;2023-08-21T15:26:12;24.90;99.90
16825;DHT22;8529;48.108;-1.706;2023-08-21T15:28:39;24.90;99.90
16825;DHT22;8529;48.108;-1.706;2023-08-21T15:31:06;24.90;99.90
16825;DHT22;8529;48.108;-1.706;2023-08-21T15:33:35;24.90;99.90